createdAt,value
2019-05-16T00:00:40.526Z,998.78
2019-05-16T00:01:40.231Z,998.78
2019-05-16T00:02:40.221Z,998.76
2019-05-16T00:03:40.234Z,998.73
2019-05-16T00:04:40.227Z,998.75
2019-05-16T00:05:50.415Z,998.72
2019-05-16T00:06:41.180Z,998.73
2019-05-16T00:07:40.160Z,998.73
2019-05-16T00:08:40.177Z,998.70
2019-05-16T00:09:40.161Z,998.73
2019-05-16T00:10:40.139Z,998.71
2019-05-16T00:11:40.119Z,998.70
2019-05-16T00:12:40.185Z,998.62
2019-05-16T00:13:40.097Z,998.64
2019-05-16T00:14:40.083Z,998.67
2019-05-16T00:15:40.115Z,998.66
2019-05-16T00:16:40.101Z,998.60
2019-05-16T00:17:40.066Z,998.66
2019-05-16T00:18:40.070Z,998.62
2019-05-16T00:19:40.027Z,998.59
2019-05-16T00:20:40.019Z,998.54
2019-05-16T00:21:40.064Z,998.59
2019-05-16T00:22:40.015Z,998.56
2019-05-16T00:23:39.993Z,998.57
2019-05-16T00:24:40.013Z,998.55
2019-05-16T00:25:39.967Z,998.54
2019-05-16T00:26:39.952Z,998.54
2019-05-16T00:27:40.019Z,998.53
2019-05-16T00:28:39.929Z,998.50
2019-05-16T00:29:39.920Z,998.50
2019-05-16T00:30:39.907Z,998.47
2019-05-16T00:31:39.899Z,998.48
2019-05-16T00:32:39.910Z,998.48
2019-05-16T00:33:39.910Z,998.44
2019-05-16T00:34:39.866Z,998.42
2019-05-16T00:35:39.854Z,998.47
2019-05-16T00:36:39.850Z,998.39
2019-05-16T00:37:39.838Z,998.42
2019-05-16T00:38:39.830Z,998.40
2019-05-16T00:39:39.837Z,998.43
2019-05-16T00:40:39.805Z,998.40
2019-05-16T00:41:39.803Z,998.38
2019-05-16T00:42:39.774Z,998.38
2019-05-16T00:43:39.763Z,998.36
2019-05-16T00:44:39.756Z,998.38
2019-05-16T00:45:39.783Z,998.29
2019-05-16T00:46:39.759Z,998.29
2019-05-16T00:47:39.720Z,998.28
2019-05-16T00:48:39.712Z,998.30
2019-05-16T00:49:39.695Z,998.24
2019-05-16T00:50:39.685Z,998.25
2019-05-16T00:51:39.697Z,998.29
2019-05-16T00:52:39.740Z,998.24
2019-05-16T00:53:39.677Z,998.18
2019-05-16T00:54:39.644Z,998.21
2019-05-16T00:55:39.642Z,998.19
2019-05-16T00:56:39.632Z,998.19
2019-05-16T00:57:39.637Z,998.19
2019-05-16T00:58:39.604Z,998.22
2019-05-16T00:59:39.584Z,998.22
2019-05-16T01:00:39.628Z,998.17
2019-05-16T01:01:39.561Z,998.24
2019-05-16T01:02:39.553Z,998.17
2019-05-16T01:03:39.593Z,998.19
2019-05-16T01:04:39.545Z,998.20
2019-05-16T01:05:39.531Z,998.18
2019-05-16T01:06:39.531Z,998.19
2019-05-16T01:07:39.497Z,998.18
2019-05-16T01:08:39.492Z,998.16
2019-05-16T01:09:39.510Z,998.16
2019-05-16T01:10:39.484Z,998.15
2019-05-16T01:11:39.450Z,998.18
2019-05-16T01:12:39.440Z,998.15
2019-05-16T01:13:39.474Z,998.15
2019-05-16T01:14:39.427Z,998.13
2019-05-16T01:15:39.437Z,998.19
2019-05-16T01:16:39.404Z,998.09
2019-05-16T01:17:39.413Z,998.07
2019-05-16T01:18:39.374Z,998.11
2019-05-16T01:19:39.366Z,998.10
2019-05-16T01:20:39.374Z,998.14
2019-05-16T01:21:39.359Z,998.04
2019-05-16T01:22:39.349Z,998.10
2019-05-16T01:23:39.327Z,998.05
2019-05-16T01:24:41.491Z,998.08
2019-05-16T01:25:39.294Z,998.01
2019-05-16T01:26:39.369Z,998.01
2019-05-16T01:27:39.343Z,998.00
2019-05-16T01:28:39.268Z,998.02
2019-05-16T01:29:39.260Z,997.99
2019-05-16T01:30:39.266Z,997.95
2019-05-16T01:31:39.234Z,997.98
2019-05-16T01:32:39.519Z,997.96
2019-05-16T01:33:39.246Z,997.94
2019-05-16T01:34:39.195Z,997.91
2019-05-16T01:35:41.752Z,997.94
2019-05-16T01:36:40.795Z,997.89
2019-05-16T01:37:39.165Z,997.86
2019-05-16T01:38:39.212Z,997.84
2019-05-16T01:39:39.171Z,997.85
2019-05-16T01:40:39.146Z,997.85
2019-05-16T01:41:39.157Z,997.80
2019-05-16T01:42:39.116Z,997.78
2019-05-16T01:43:39.107Z,997.78
2019-05-16T01:44:39.084Z,997.79
2019-05-16T01:45:39.104Z,997.78
2019-05-16T01:46:39.258Z,997.78
2019-05-16T01:47:39.473Z,997.80
2019-05-16T01:48:39.042Z,997.74
2019-05-16T01:49:39.081Z,997.75
2019-05-16T01:50:39.028Z,997.75
2019-05-16T01:51:39.050Z,997.73
2019-05-16T01:52:38.997Z,997.75
2019-05-16T01:53:39.561Z,997.72
2019-05-16T01:54:39.012Z,997.76
2019-05-16T01:55:39.029Z,997.74
2019-05-16T01:56:38.983Z,997.73
2019-05-16T01:57:39.326Z,997.70
2019-05-16T01:58:38.936Z,997.69
2019-05-16T01:59:38.919Z,997.69
2019-05-16T02:00:49.157Z,997.69
2019-05-16T02:01:39.902Z,997.66
2019-05-16T02:02:38.887Z,997.64
2019-05-16T02:03:38.961Z,997.65
2019-05-16T02:04:38.866Z,997.66
2019-05-16T02:05:38.936Z,997.69
2019-05-16T02:06:50.732Z,997.59
2019-05-16T02:07:39.834Z,997.59
2019-05-16T02:08:38.826Z,997.59
2019-05-16T02:09:38.841Z,997.65
2019-05-16T02:10:38.822Z,997.63
2019-05-16T02:11:38.929Z,997.54
2019-05-16T02:12:38.782Z,997.64
2019-05-16T02:13:39.234Z,997.60
2019-05-16T02:14:38.922Z,997.63
2019-05-16T02:15:38.765Z,997.59
2019-05-16T02:16:38.732Z,997.63
2019-05-16T02:17:38.767Z,997.58
2019-05-16T02:18:38.739Z,997.58
2019-05-16T02:19:38.700Z,997.57
2019-05-16T02:20:39.211Z,997.59
2019-05-16T02:21:38.976Z,997.61
2019-05-16T02:22:39.095Z,997.56
2019-05-16T02:23:38.670Z,997.56
2019-05-16T02:24:38.968Z,997.48
2019-05-16T02:25:40.890Z,997.50
2019-05-16T02:26:38.782Z,997.50
2019-05-16T02:27:41.124Z,997.44
2019-05-16T02:28:40.894Z,997.39
2019-05-16T02:29:40.118Z,997.43
2019-05-16T02:30:41.945Z,997.39
2019-05-16T02:31:41.819Z,997.42
2019-05-16T02:32:41.325Z,997.43
2019-05-16T02:33:40.618Z,997.37
2019-05-16T02:34:41.387Z,997.48
2019-05-16T02:35:40.607Z,997.41
2019-05-16T02:36:40.508Z,997.43
2019-05-16T02:37:41.780Z,997.35
2019-05-16T02:38:41.998Z,997.40
2019-05-16T02:39:40.938Z,997.43
2019-05-16T02:40:41.523Z,997.41
2019-05-16T02:41:38.461Z,997.41
2019-05-16T02:42:41.764Z,997.43
2019-05-16T02:43:41.716Z,997.38
2019-05-16T02:44:41.316Z,997.41
2019-05-16T02:45:41.489Z,997.41
2019-05-16T02:46:41.632Z,997.40
2019-05-16T02:47:41.983Z,997.40
2019-05-16T02:48:40.837Z,997.35
2019-05-16T02:49:41.192Z,997.38
2019-05-16T02:50:41.265Z,997.33
2019-05-16T02:51:40.568Z,997.44
2019-05-16T02:52:41.048Z,997.37
2019-05-16T02:53:41.323Z,997.36
2019-05-16T02:54:41.309Z,997.39
2019-05-16T02:55:40.846Z,997.41
2019-05-16T02:56:41.434Z,997.42
2019-05-16T02:57:41.576Z,997.40
2019-05-16T02:58:44.181Z,997.43
2019-05-16T02:59:41.591Z,997.40
2019-05-16T03:00:41.920Z,997.34
2019-05-16T03:01:40.798Z,997.38
2019-05-16T03:02:41.586Z,997.34
2019-05-16T03:03:40.207Z,997.30
2019-05-16T03:04:43.201Z,997.32
2019-05-16T03:05:41.597Z,997.23
2019-05-16T03:06:40.858Z,997.35
2019-05-16T03:07:45.834Z,997.30
2019-05-16T03:08:41.255Z,997.28
2019-05-16T03:09:40.890Z,997.31
2019-05-16T03:10:41.042Z,997.27
2019-05-16T03:11:38.173Z,997.29
2019-05-16T03:12:40.858Z,997.25
2019-05-16T03:13:38.119Z,997.21
2019-05-16T03:14:38.152Z,997.22
2019-05-16T03:15:40.797Z,997.21
2019-05-16T03:16:41.518Z,997.23
2019-05-16T03:17:40.283Z,997.18
2019-05-16T03:18:41.120Z,997.20
2019-05-16T03:19:38.059Z,997.21
2019-05-16T03:20:40.584Z,997.20
2019-05-16T03:21:41.138Z,997.17
2019-05-16T03:22:40.599Z,997.18
2019-05-16T03:23:41.705Z,997.10
2019-05-16T03:24:41.729Z,997.11
2019-05-16T03:25:38.003Z,997.11
2019-05-16T03:26:40.789Z,997.16
2019-05-16T03:27:41.012Z,997.12
2019-05-16T03:28:41.098Z,997.08
2019-05-16T03:29:37.940Z,997.10
2019-05-16T03:30:43.886Z,997.08
2019-05-16T03:31:44.510Z,997.04
2019-05-16T03:32:44.489Z,997.07
2019-05-16T03:33:47.348Z,997.06
2019-05-16T03:34:43.416Z,997.06
2019-05-16T03:35:44.040Z,997.08
2019-05-16T03:36:43.886Z,997.06
2019-05-16T03:37:51.557Z,997.03
2019-05-16T03:38:41.298Z,997.07
2019-05-16T03:39:40.541Z,997.04
2019-05-16T03:40:41.009Z,997.04
2019-05-16T03:41:37.808Z,997.07
2019-05-16T03:42:41.353Z,997.05
2019-05-16T03:43:41.010Z,997.04
2019-05-16T03:44:40.862Z,996.97
2019-05-16T03:45:41.411Z,996.99
2019-05-16T03:46:41.050Z,996.97
2019-05-16T03:47:37.748Z,996.94
2019-05-16T03:48:40.648Z,997.04
2019-05-16T03:49:37.757Z,996.97
2019-05-16T03:50:37.707Z,997.01
2019-05-16T03:51:37.717Z,997.00
2019-05-16T03:52:42.406Z,996.96
2019-05-16T03:53:40.323Z,996.98
2019-05-16T03:54:37.688Z,996.94
2019-05-16T03:55:40.476Z,996.98
2019-05-16T03:56:40.544Z,997.01
2019-05-16T03:57:41.058Z,996.99
2019-05-16T03:58:37.636Z,997.02
2019-05-16T03:59:40.698Z,997.02
2019-05-16T04:00:37.616Z,996.98
2019-05-16T04:01:40.677Z,997.00
2019-05-16T04:02:37.581Z,996.92
2019-05-16T04:03:40.982Z,996.93
2019-05-16T04:04:37.565Z,996.92
2019-05-16T04:05:41.190Z,996.93
2019-05-16T04:06:37.533Z,996.92
2019-05-16T04:07:41.050Z,996.86
2019-05-16T04:08:37.509Z,996.87
2019-05-16T04:09:40.896Z,996.86
2019-05-16T04:10:37.492Z,996.88
2019-05-16T04:11:37.478Z,996.86
2019-05-16T04:12:37.468Z,996.88
2019-05-16T04:13:40.770Z,996.83
2019-05-16T04:14:40.618Z,996.86
2019-05-16T04:15:40.598Z,996.90
2019-05-16T04:16:37.431Z,996.87
2019-05-16T04:17:40.811Z,996.86
2019-05-16T04:18:37.405Z,996.89
2019-05-16T04:19:37.430Z,996.86
2019-05-16T04:20:37.387Z,996.91
2019-05-16T04:21:37.368Z,996.89
2019-05-16T04:22:40.598Z,996.92
2019-05-16T04:23:37.361Z,996.86
2019-05-16T04:24:37.362Z,996.84
2019-05-16T04:25:40.754Z,996.86
2019-05-16T04:26:37.329Z,996.83
2019-05-16T04:27:37.303Z,996.88
2019-05-16T04:28:40.942Z,996.82
2019-05-16T04:29:40.579Z,996.88
2019-05-16T04:30:37.320Z,996.87
2019-05-16T04:31:37.294Z,996.86
2019-05-16T04:32:37.244Z,996.90
2019-05-16T04:33:37.234Z,996.90
2019-05-16T04:34:37.235Z,996.96
2019-05-16T04:35:37.232Z,996.91
2019-05-16T04:36:37.247Z,996.92
2019-05-16T04:37:37.239Z,996.92
2019-05-16T04:38:42.839Z,996.89
2019-05-16T04:39:41.250Z,996.93
2019-05-16T04:40:38.497Z,996.87
2019-05-16T04:41:40.697Z,996.91
2019-05-16T04:42:37.157Z,996.89
2019-05-16T04:43:37.184Z,996.89
2019-05-16T04:44:37.127Z,996.98
2019-05-16T04:45:37.122Z,996.92
2019-05-16T04:46:40.840Z,996.91
2019-05-16T04:47:37.104Z,996.94
2019-05-16T04:48:37.096Z,996.91
2019-05-16T04:49:37.128Z,996.94
2019-05-16T04:50:37.082Z,996.90
2019-05-16T04:51:37.060Z,996.88
2019-05-16T04:52:37.051Z,996.91
2019-05-16T04:53:37.050Z,996.87
2019-05-16T04:54:37.025Z,996.88
2019-05-16T04:55:37.048Z,996.89
2019-05-16T04:56:37.045Z,996.88
2019-05-16T04:57:36.995Z,996.82
2019-05-16T04:58:37.012Z,996.84
2019-05-16T04:59:36.965Z,996.87
2019-05-16T05:00:36.958Z,996.80
2019-05-16T05:01:36.989Z,996.84
2019-05-16T05:02:36.943Z,996.82
2019-05-16T05:03:36.925Z,996.84
2019-05-16T05:04:36.913Z,996.86
2019-05-16T05:05:36.922Z,996.83
2019-05-16T05:06:36.898Z,996.85
2019-05-16T05:07:36.907Z,996.83
2019-05-16T05:08:50.577Z,996.82
2019-05-16T05:09:40.587Z,996.79
2019-05-16T05:10:36.862Z,996.76
2019-05-16T05:11:36.846Z,996.81
2019-05-16T05:12:36.859Z,996.78
2019-05-16T05:13:36.837Z,996.78
2019-05-16T05:14:36.807Z,996.74
2019-05-16T05:15:36.832Z,996.76
2019-05-16T05:16:36.790Z,996.73
2019-05-16T05:17:36.784Z,996.72
2019-05-16T05:18:36.791Z,996.79
2019-05-16T05:19:36.773Z,996.78
2019-05-16T05:20:36.752Z,996.83
2019-05-16T05:21:36.749Z,996.75
2019-05-16T05:22:36.726Z,996.76
2019-05-16T05:23:36.727Z,996.80
2019-05-16T05:24:36.708Z,996.77
2019-05-16T05:25:36.738Z,996.75
2019-05-16T05:26:36.712Z,996.72
2019-05-16T05:27:36.674Z,996.69
2019-05-16T05:28:36.701Z,996.72
2019-05-16T05:29:36.662Z,996.73
2019-05-16T05:30:36.645Z,996.72
2019-05-16T05:31:36.662Z,996.75
2019-05-16T05:32:36.616Z,996.71
2019-05-16T05:33:36.608Z,996.71
2019-05-16T05:34:36.637Z,996.73
2019-05-16T05:35:36.607Z,996.71
2019-05-16T05:36:36.576Z,996.73
2019-05-16T05:37:36.603Z,996.68
2019-05-16T05:38:36.565Z,996.73
2019-05-16T05:39:36.554Z,996.73
2019-05-16T05:40:36.544Z,996.72
2019-05-16T05:41:36.526Z,996.72
2019-05-16T05:42:36.514Z,996.72
2019-05-16T05:43:36.522Z,996.71
2019-05-16T05:44:36.487Z,996.73
2019-05-16T05:45:36.509Z,996.69
2019-05-16T05:46:36.465Z,996.69
2019-05-16T05:47:37.072Z,996.76
2019-05-16T05:48:36.440Z,996.74
2019-05-16T05:49:36.445Z,996.74
2019-05-16T05:50:36.471Z,996.77
2019-05-16T05:51:36.438Z,996.80
2019-05-16T05:52:36.395Z,996.83
2019-05-16T05:53:36.444Z,996.78
2019-05-16T05:54:36.426Z,996.82
2019-05-16T05:55:36.387Z,996.83
2019-05-16T05:56:36.352Z,996.83
2019-05-16T05:57:36.354Z,996.81
2019-05-16T05:58:36.336Z,996.82
2019-05-16T05:59:36.332Z,996.78
2019-05-16T06:00:36.318Z,996.78
2019-05-16T06:01:36.326Z,996.82
2019-05-16T06:02:36.283Z,996.79
2019-05-16T06:03:36.273Z,996.80
2019-05-16T06:04:36.261Z,996.80
2019-05-16T06:05:36.244Z,996.80
2019-05-16T06:06:36.240Z,996.82
2019-05-16T06:07:36.275Z,996.79
2019-05-16T06:08:36.227Z,996.81
2019-05-16T06:09:48.757Z,996.81
2019-05-16T06:10:37.207Z,996.79
2019-05-16T06:11:36.188Z,996.80
2019-05-16T06:12:36.169Z,996.75
2019-05-16T06:13:36.183Z,996.78
2019-05-16T06:14:36.171Z,996.72
2019-05-16T06:15:36.153Z,996.81
2019-05-16T06:16:36.118Z,996.78
2019-05-16T06:17:36.113Z,996.82
2019-05-16T06:18:36.104Z,996.80
2019-05-16T06:19:36.107Z,996.80
2019-05-16T06:20:36.076Z,996.78
2019-05-16T06:21:36.078Z,996.83
2019-05-16T06:22:36.058Z,996.77
2019-05-16T06:23:36.050Z,996.78
2019-05-16T06:24:36.035Z,996.85
2019-05-16T06:25:36.054Z,996.76
2019-05-16T06:26:36.060Z,996.81
2019-05-16T06:27:36.043Z,996.79
2019-05-16T06:28:36.046Z,996.74
2019-05-16T06:29:35.992Z,996.75
2019-05-16T06:30:35.963Z,996.78
2019-05-16T06:31:36.004Z,996.71
2019-05-16T06:32:36.009Z,996.71
2019-05-16T06:33:35.942Z,996.72
2019-05-16T06:34:35.932Z,996.73
2019-05-16T06:35:35.956Z,996.72
2019-05-16T06:36:35.912Z,996.73
2019-05-16T06:37:35.918Z,996.74
2019-05-16T06:38:35.880Z,996.77
2019-05-16T06:39:42.000Z,996.71
2019-05-16T06:40:36.849Z,996.74
2019-05-16T06:41:39.639Z,996.78
2019-05-16T06:42:35.835Z,996.79
2019-05-16T06:43:35.848Z,996.76
2019-05-16T06:44:35.807Z,996.75
2019-05-16T06:45:35.806Z,996.77
2019-05-16T06:46:44.157Z,996.71
2019-05-16T06:47:36.777Z,996.74
2019-05-16T06:48:35.798Z,996.75
2019-05-16T06:49:35.762Z,996.70
2019-05-16T06:50:35.742Z,996.66
2019-05-16T06:51:35.725Z,996.66
2019-05-16T06:52:35.778Z,996.58
2019-05-16T06:53:35.707Z,996.61
2019-05-16T06:54:35.691Z,996.63
2019-05-16T06:55:35.749Z,996.62
2019-05-16T06:56:35.696Z,996.58
2019-05-16T06:57:35.653Z,996.57
2019-05-16T06:58:47.428Z,996.55
2019-05-16T06:59:36.651Z,996.55
2019-05-16T07:00:35.632Z,996.52
2019-05-16T07:01:35.632Z,996.51
2019-05-16T07:02:35.614Z,996.47
2019-05-16T07:03:35.580Z,996.53
2019-05-16T07:04:35.565Z,996.51
2019-05-16T07:05:35.557Z,996.56
2019-05-16T07:06:51.856Z,996.50
2019-05-16T07:07:36.548Z,996.53
2019-05-16T07:08:35.514Z,996.50
2019-05-16T07:09:35.525Z,996.47
2019-05-16T07:10:35.499Z,996.45
2019-05-16T07:11:35.497Z,996.47
2019-05-16T07:12:35.480Z,996.42
2019-05-16T07:13:35.484Z,996.41
2019-05-16T07:14:35.450Z,996.50
2019-05-16T07:15:35.466Z,996.42
2019-05-16T07:16:35.464Z,996.42
2019-05-16T07:17:35.417Z,996.44
2019-05-16T07:18:35.436Z,996.39
2019-05-16T07:19:35.647Z,996.41
2019-05-16T07:20:35.384Z,996.41
2019-05-16T07:21:35.356Z,996.37
2019-05-16T07:22:35.351Z,996.35
2019-05-16T07:23:35.336Z,996.32
2019-05-16T07:24:35.322Z,996.30
2019-05-16T07:25:35.373Z,996.29
2019-05-16T07:26:35.321Z,996.27
2019-05-16T07:27:35.334Z,996.25
2019-05-16T07:28:35.274Z,996.25
2019-05-16T07:29:35.273Z,996.29
2019-05-16T07:30:35.260Z,996.23
2019-05-16T07:31:35.273Z,996.22
2019-05-16T07:32:35.224Z,996.22
2019-05-16T07:33:35.215Z,996.21
2019-05-16T07:34:35.220Z,996.16
2019-05-16T07:35:35.188Z,996.17
2019-05-16T07:36:35.207Z,996.19
2019-05-16T07:37:35.196Z,996.22
2019-05-16T07:38:35.155Z,996.15
2019-05-16T07:39:35.144Z,996.18
2019-05-16T07:40:35.129Z,996.16
2019-05-16T07:41:35.135Z,996.20
2019-05-16T07:42:35.110Z,996.20
2019-05-16T07:43:35.151Z,996.21
2019-05-16T07:44:35.083Z,996.20
2019-05-16T07:45:37.695Z,996.26
2019-05-16T07:46:35.074Z,996.28
2019-05-16T07:47:35.063Z,996.19
2019-05-16T07:48:35.069Z,996.19
2019-05-16T07:49:35.104Z,996.24
2019-05-16T07:50:35.045Z,996.25
2019-05-16T07:51:35.031Z,996.27
2019-05-16T07:52:36.230Z,996.21
2019-05-16T07:53:34.977Z,996.26
2019-05-16T07:54:34.982Z,996.21
2019-05-16T07:55:34.969Z,996.23
2019-05-16T07:56:34.952Z,996.21
2019-05-16T07:57:34.934Z,996.16
2019-05-16T07:58:34.923Z,996.15
2019-05-16T07:59:34.934Z,996.08
2019-05-16T08:00:49.456Z,996.08
2019-05-16T08:01:35.882Z,996.07
2019-05-16T08:02:34.890Z,996.07
2019-05-16T08:03:34.858Z,996.09
2019-05-16T08:04:34.854Z,996.06
2019-05-16T08:05:34.866Z,996.10
2019-05-16T08:06:34.820Z,996.06
2019-05-16T08:07:34.829Z,996.11
2019-05-16T08:08:34.805Z,996.13
2019-05-16T08:09:34.787Z,996.10
2019-05-16T08:11:35.788Z,996.10
2019-05-16T08:12:34.753Z,996.13
2019-05-16T08:13:34.743Z,996.11
2019-05-16T08:14:35.273Z,996.08
2019-05-16T08:15:34.748Z,996.05
2019-05-16T08:16:34.711Z,996.08
2019-05-16T08:17:34.769Z,995.99
2019-05-16T08:18:34.706Z,996.01
2019-05-16T08:19:34.714Z,996.00
2019-05-16T08:20:34.707Z,995.95
2019-05-16T08:21:34.659Z,995.95
2019-05-16T08:22:34.644Z,995.96
2019-05-16T08:23:34.674Z,995.90
2019-05-16T08:24:36.191Z,995.93
2019-05-16T08:25:34.620Z,995.92
2019-05-16T08:26:39.085Z,995.86
2019-05-16T08:27:35.593Z,995.91
2019-05-16T08:28:34.581Z,995.82
2019-05-16T08:29:34.666Z,995.87
2019-05-16T08:30:34.564Z,995.90
2019-05-16T08:31:34.689Z,995.87
2019-05-16T08:32:34.531Z,995.84
2019-05-16T08:33:34.530Z,995.83
2019-05-16T08:34:34.519Z,995.85
2019-05-16T08:35:34.523Z,995.83
2019-05-16T08:36:34.502Z,995.82
2019-05-16T08:38:35.471Z,995.76
2019-05-16T08:39:34.452Z,995.76
2019-05-16T08:40:59.880Z,995.84
2019-05-16T08:41:35.443Z,995.75
2019-05-16T08:42:34.425Z,995.75
2019-05-16T08:43:34.441Z,995.80
2019-05-16T08:44:34.405Z,995.75
2019-05-16T08:45:34.381Z,995.75
2019-05-16T08:46:34.371Z,995.74
2019-05-16T08:47:34.411Z,995.67
2019-05-16T08:48:34.418Z,995.65
2019-05-16T08:49:34.337Z,995.67
2019-05-16T08:50:05.093Z,996.09
2019-05-16T08:50:35.193Z,995.64
2019-05-16T08:51:34.334Z,995.66
2019-05-16T08:52:34.301Z,995.60
2019-05-16T08:53:34.342Z,995.57
2019-05-16T08:54:34.301Z,995.62
2019-05-16T08:55:34.279Z,995.52
2019-05-16T08:56:34.259Z,995.57
2019-05-16T08:57:34.278Z,995.52
2019-05-16T08:58:34.241Z,995.55
2019-05-16T08:59:34.283Z,995.51
2019-05-16T09:00:34.233Z,995.54
2019-05-16T09:01:35.241Z,995.50
2019-05-16T09:03:35.208Z,995.50
2019-05-16T09:04:34.554Z,995.46
2019-05-16T09:05:34.194Z,995.47
2019-05-16T09:06:34.151Z,995.45
2019-05-16T09:07:34.145Z,995.47
2019-05-16T09:08:34.144Z,995.43
2019-05-16T09:09:44.486Z,995.48
2019-05-16T09:10:21.438Z,995.78
2019-05-16T09:10:25.133Z,995.50
2019-05-16T09:11:43.554Z,995.48
2019-05-16T09:12:37.132Z,995.46
2019-05-16T09:13:36.850Z,995.47
2019-05-16T09:14:36.331Z,995.43
2019-05-16T09:15:34.049Z,995.42
2019-05-16T09:16:37.076Z,995.38
2019-05-16T09:17:34.043Z,995.33
2019-05-16T09:18:36.426Z,995.43
2019-05-16T09:18:40.571Z,995.32
2019-05-16T09:19:36.940Z,995.36
2019-05-16T09:20:33.999Z,995.38
2019-05-16T09:21:34.004Z,995.34
2019-05-16T09:22:33.986Z,995.39
2019-05-16T09:23:33.952Z,995.38
2019-05-16T09:24:33.968Z,995.37
2019-05-16T09:25:36.822Z,995.30
2019-05-16T09:26:33.939Z,995.37
2019-05-16T09:27:33.963Z,995.33
2019-05-16T09:28:33.960Z,995.37
2019-05-16T09:29:36.589Z,995.41
2019-05-16T09:30:36.903Z,995.37
2019-05-16T09:31:33.864Z,995.31
2019-05-16T09:32:36.687Z,995.35
2019-05-16T09:33:33.837Z,995.34
2019-05-16T09:34:33.872Z,995.34
2019-05-16T09:35:36.836Z,995.44
2019-05-16T09:36:33.813Z,995.42
2019-05-16T09:37:33.795Z,995.51
2019-05-16T09:38:33.790Z,995.49
2019-05-16T09:39:33.771Z,995.48
2019-05-16T09:40:33.778Z,995.50
2019-05-16T09:41:53.280Z,995.50
2019-05-16T09:42:37.044Z,995.53
2019-05-16T09:43:33.724Z,995.56
2019-05-16T09:44:33.719Z,995.54
2019-05-16T09:45:33.699Z,995.58
2019-05-16T09:46:33.709Z,995.69
2019-05-16T09:47:33.677Z,996.30
2019-05-16T09:48:33.705Z,995.53
2019-05-16T09:49:33.696Z,995.54
2019-05-16T09:50:33.672Z,995.59
2019-05-16T09:51:33.635Z,995.57
2019-05-16T09:52:33.672Z,995.42
2019-05-16T09:53:33.616Z,995.65
2019-05-16T09:54:33.604Z,995.57
2019-05-16T09:55:33.590Z,995.49
2019-05-16T09:56:33.633Z,995.43
2019-05-16T09:57:33.571Z,995.56
2019-05-16T09:58:33.607Z,995.81
2019-05-16T09:59:33.549Z,996.13
2019-05-16T10:00:33.534Z,996.26
2019-05-16T10:01:33.524Z,995.65
2019-05-16T10:02:33.571Z,996.18
2019-05-16T10:03:33.505Z,996.74
2019-05-16T10:04:33.553Z,996.07
2019-05-16T10:05:33.489Z,996.40
2019-05-16T10:06:33.472Z,996.04
2019-05-16T10:07:33.493Z,996.32
2019-05-16T10:08:34.224Z,995.82
2019-05-16T10:09:42.155Z,995.73
2019-05-16T10:10:36.803Z,995.82
2019-05-16T10:11:33.506Z,995.60
2019-05-16T10:12:33.405Z,995.79
2019-05-16T10:13:33.413Z,995.44
2019-05-16T10:14:33.384Z,996.00
2019-05-16T10:15:33.369Z,996.10
2019-05-16T10:16:33.382Z,995.40
2019-05-16T10:17:33.354Z,995.20
2019-05-16T10:18:33.358Z,995.90
2019-05-16T10:19:33.351Z,995.29
2019-05-16T10:20:33.325Z,995.22
2019-05-16T10:21:33.310Z,995.60
2019-05-16T10:22:33.319Z,995.65
2019-05-16T10:23:33.287Z,995.99
2019-05-16T10:24:33.280Z,995.86
2019-05-16T10:25:33.275Z,996.09
2019-05-16T10:26:33.304Z,995.93
2019-05-16T10:27:33.245Z,996.10
2019-05-16T10:28:33.262Z,996.12
2019-05-16T10:29:33.237Z,996.00
2019-05-16T10:30:33.234Z,995.98
2019-05-16T10:31:44.789Z,995.94
2019-05-16T10:32:36.543Z,995.92
2019-05-16T10:33:34.211Z,995.91
2019-05-16T10:34:33.228Z,995.86
2019-05-16T10:35:33.174Z,995.93
2019-05-16T10:36:33.167Z,995.99
2019-05-16T10:37:33.155Z,996.05
2019-05-16T10:38:33.147Z,996.17
2019-05-16T10:39:33.183Z,996.14
2019-05-16T10:40:33.126Z,996.13
2019-05-16T10:41:33.108Z,996.16
2019-05-16T10:42:33.111Z,996.20
2019-05-16T10:43:33.085Z,995.48
2019-05-16T10:44:33.130Z,995.36
2019-05-16T10:45:33.109Z,994.91
2019-05-16T10:46:33.065Z,995.00
2019-05-16T10:47:33.050Z,994.84
2019-05-16T10:48:33.613Z,994.88
2019-05-16T10:49:37.686Z,994.78
2019-05-16T10:50:34.122Z,994.94
2019-05-16T10:51:33.053Z,995.19
2019-05-16T10:52:32.999Z,994.95
2019-05-16T10:54:01.327Z,995.67
2019-05-16T10:54:34.025Z,995.62
2019-05-16T10:55:32.969Z,995.04
2019-05-16T10:56:32.991Z,995.43
2019-05-16T10:57:33.072Z,995.13
2019-05-16T10:58:41.577Z,994.95
2019-05-16T11:01:11.123Z,995.15
2019-05-16T11:01:33.929Z,995.55
2019-05-16T11:02:33.092Z,995.46
2019-05-16T11:03:32.906Z,995.39
2019-05-16T11:04:49.880Z,995.40
2019-05-16T11:05:36.253Z,995.43
2019-05-16T11:06:33.864Z,995.03
2019-05-16T11:07:32.916Z,995.46
2019-05-16T11:08:32.884Z,995.47
2019-05-16T11:09:32.824Z,995.39
2019-05-16T11:10:32.871Z,995.33
2019-05-16T11:11:32.801Z,995.35
2019-05-16T11:12:46.101Z,995.32
2019-05-16T11:13:33.804Z,995.33
2019-05-16T11:14:32.779Z,995.32
2019-05-16T11:15:32.784Z,995.37
2019-05-16T11:16:32.757Z,995.33
2019-05-16T11:17:32.756Z,995.31
2019-05-16T11:18:32.734Z,995.24
2019-05-16T11:19:32.802Z,995.23
2019-05-16T11:20:32.742Z,995.28
2019-05-16T11:21:32.702Z,995.19
2019-05-16T11:22:32.692Z,995.26
2019-05-16T11:23:32.695Z,995.26
2019-05-16T11:24:32.776Z,995.21
2019-05-16T11:25:32.852Z,995.16
2019-05-16T11:26:32.654Z,995.19
2019-05-16T11:27:32.647Z,995.17
2019-05-16T11:28:32.654Z,995.13
2019-05-16T11:29:32.648Z,995.11
2019-05-16T11:30:32.673Z,995.05
2019-05-16T11:31:32.637Z,995.07
2019-05-16T11:32:32.600Z,995.05
2019-05-16T11:33:32.607Z,995.13
2019-05-16T11:34:32.580Z,995.11
2019-05-16T11:35:32.576Z,995.05
2019-05-16T11:36:32.560Z,995.13
2019-05-16T11:37:32.611Z,995.12
2019-05-16T11:38:32.539Z,995.09
2019-05-16T11:39:32.542Z,995.07
2019-05-16T11:40:32.522Z,995.12
2019-05-16T11:41:32.515Z,995.08
2019-05-16T11:42:32.510Z,994.87
2019-05-16T11:43:32.524Z,994.33
2019-05-16T11:44:32.500Z,993.94
2019-05-16T11:45:32.469Z,993.88
2019-05-16T11:46:32.463Z,993.95
2019-05-16T11:47:32.449Z,993.87
2019-05-16T11:48:32.465Z,993.88
2019-05-16T11:49:32.448Z,993.84
2019-05-16T11:50:32.443Z,993.80
2019-05-16T11:51:32.409Z,993.81
2019-05-16T11:52:32.402Z,993.85
2019-05-16T11:53:32.413Z,993.79
2019-05-16T11:54:32.388Z,993.75
2019-05-16T11:55:35.194Z,993.80
2019-05-16T11:56:33.355Z,993.84
2019-05-16T11:57:32.360Z,993.82
2019-05-16T11:58:32.381Z,993.79
2019-05-16T11:59:32.322Z,993.78
2019-05-16T12:00:32.312Z,993.75
2019-05-16T12:01:32.344Z,993.83
2019-05-16T12:02:32.310Z,993.84
2019-05-16T12:03:32.285Z,993.85
2019-05-16T12:04:32.270Z,994.02
2019-05-16T12:05:32.280Z,993.89
2019-05-16T12:06:32.277Z,993.89
2019-05-16T12:07:34.954Z,993.89
2019-05-16T12:08:32.765Z,993.83
2019-05-16T12:09:47.157Z,993.81
2019-05-16T12:10:33.204Z,993.75
2019-05-16T12:11:32.195Z,993.69
2019-05-16T12:12:32.180Z,993.77
2019-05-16T12:13:33.044Z,993.73
2019-05-16T12:14:32.163Z,993.68
2019-05-16T12:15:32.148Z,993.59
2019-05-16T12:16:32.137Z,993.58
2019-05-16T12:17:32.129Z,993.56
2019-05-16T12:18:32.113Z,993.61
2019-05-16T12:19:35.542Z,993.56
2019-05-16T12:20:33.092Z,993.64
2019-05-16T12:21:32.097Z,993.55
2019-05-16T12:22:32.075Z,993.50
2019-05-16T12:23:32.069Z,993.50
2019-05-16T12:24:37.708Z,993.43
2019-05-16T12:25:33.058Z,993.47
2019-05-16T12:26:32.037Z,993.49
2019-05-16T12:27:33.664Z,993.47
2019-05-16T12:28:32.004Z,993.47
2019-05-16T12:29:31.999Z,993.55